Terminal Aerodrome Forecast
Issued by NWS Quad Cities IA IL

Home | Current Version | Previous Version | Text Only | Print | Product List | Glossary On
Versions: 1 2 3 4 5 6 7 8 9 10 11 12 13 14 15 16 17 18 19 20 21 22 23 24
499
FTUS43 KDVN 242349
TAFMLI
TAF
KMLI 242349Z 2500/2524 31008KT 2SM BR VCSH SCT007 OVC013
     FM250100 32015G25KT 4SM -SN BR BKN015 OVC025
      TEMPO 2501/2505 1SM -SN BR BKN004 OVC008
     FM250500 32015G25KT 4SM -SN BR OVC009
     FM250700 32016G27KT 6SM BR VCSH OVC015
     FM251200 30014G22KT P6SM SKC=

USA.gov is the U.S. government's official web portal to all federal, state and local government web resources and services.